Time;durP1;ratioP1;P1;durP2;ratioP2;P2;SDS_P1;SDS_P2;PMS_P1;PMS_P2;Temp;Humidity;BMP_temperature;BMP_pressure;BME280_temperature;BME280_humidity;BME280_pressure;Samples;Min_cycle;Max_cycle;Signal;HPM_P1;HPM_P2
2022/01/07 00:02:02;;;;;;;15.80;7.22;;;;;;;0.77;76.41;100511.41;8429346;34;20342;-75
2022/01/07 00:07:08;;;;;;;21.02;7.30;;;;;;;0.73;76.33;100508.94;8428957;34;21285;-75
2022/01/07 00:12:15;;;;;;;16.80;7.00;;;;;;;0.85;75.78;100505.84;8431562;34;20429;-75
2022/01/07 00:17:18;;;;;;;12.70;6.55;;;;;;;0.85;75.65;100489.97;8432540;34;20292;-75
2022/01/07 00:22:21;;;;;;;19.23;6.90;;;;;;;1.02;75.16;100481.34;8433584;34;20257;-75
2022/01/07 00:27:25;;;;;;;11.73;5.03;;;;;;;0.94;75.52;100478.16;8435081;34;20253;-75
2022/01/07 00:32:28;;;;;;;11.45;5.15;;;;;;;0.89;75.54;100470.41;8424079;34;21006;-75
2022/01/07 00:37:32;;;;;;;10.45;5.28;;;;;;;1.02;75.02;100462.84;8428357;34;20463;-75
2022/01/07 00:42:36;;;;;;;21.13;7.40;;;;;;;1.06;74.91;100459.13;8427928;34;20702;-75
2022/01/07 00:47:39;;;;;;;15.60;5.43;;;;;;;1.03;74.55;100431.00;8413329;34;20968;-75
2022/01/07 00:52:43;;;;;;;17.90;6.88;;;;;;;1.06;74.57;100425.59;8414037;34;21009;-75
2022/01/07 00:57:48;;;;;;;14.25;6.85;;;;;;;1.17;74.18;100414.56;8415275;34;20245;-75
2022/01/07 01:02:51;;;;;;;14.18;4.88;;;;;;;1.18;73.62;100404.84;8409512;33;20446;-75
2022/01/07 01:07:55;;;;;;;14.52;5.65;;;;;;;1.04;74.28;100397.47;8413975;34;20150;-75
2022/01/07 01:12:59;;;;;;;11.02;5.75;;;;;;;1.11;73.84;100387.53;8414199;34;20661;-75
2022/01/07 01:18:02;;;;;;;16.00;5.57;;;;;;;1.19;72.92;100394.22;8412280;34;20446;-75
2022/01/07 01:23:06;;;;;;;14.60;4.87;;;;;;;1.18;72.84;100386.31;8411454;34;21295;-75
2022/01/07 01:28:10;;;;;;;11.98;5.00;;;;;;;0.98;73.19;100382.72;8412923;34;20176;-75
2022/01/07 01:33:14;;;;;;;9.70;5.25;;;;;;;1.09;72.43;100384.06;8411797;34;20551;-75
2022/01/07 01:38:17;;;;;;;12.90;4.97;;;;;;;1.36;71.85;100372.31;8411888;34;20321;-75
2022/01/07 01:43:21;;;;;;;9.25;4.82;;;;;;;1.14;72.34;100374.16;8432986;34;20249;-75
2022/01/07 01:48:25;;;;;;;10.45;5.18;;;;;;;1.33;71.60;100353.91;8412583;34;20438;-75
2022/01/07 01:53:30;;;;;;;9.63;5.00;;;;;;;1.04;71.83;100352.50;8412198;34;20142;-75
2022/01/07 01:58:35;;;;;;;7.32;3.97;;;;;;;1.29;70.81;100339.13;8411172;34;20644;-74
2022/01/07 02:03:38;;;;;;;7.30;4.32;;;;;;;1.32;70.76;100336.34;8414036;34;20173;-75
2022/01/07 02:08:41;;;;;;;8.60;3.97;;;;;;;1.13;71.31;100320.38;8424827;34;20147;-75
2022/01/07 02:13:48;;;;;;;9.52;3.92;;;;;;;1.15;70.61;100307.97;8423203;34;20245;-75
2022/01/07 02:18:51;;;;;;;6.97;3.78;;;;;;;1.20;70.75;100313.03;8413031;34;20960;-76
2022/01/07 02:23:55;;;;;;;6.07;3.47;;;;;;;1.37;69.91;100292.00;8409062;34;20196;-74
2022/01/07 02:28:58;;;;;;;10.77;4.22;;;;;;;1.43;69.75;100289.06;8412866;34;21011;-74
2022/01/07 02:34:01;;;;;;;10.60;4.43;;;;;;;1.42;69.61;100289.13;8414602;34;20454;-76
2022/01/07 02:39:06;;;;;;;10.52;4.88;;;;;;;1.38;69.81;100291.06;8414674;34;20440;-74
2022/01/07 02:44:09;;;;;;;14.77;4.95;;;;;;;1.30;70.00;100279.97;8415231;34;20686;-74
2022/01/07 02:49:15;;;;;;;12.80;4.40;;;;;;;1.39;69.65;100276.03;8414341;34;20249;-73
2022/01/07 02:54:19;;;;;;;10.40;4.50;;;;;;;1.41;69.70;100255.66;8414988;34;20208;-74
2022/01/07 02:59:22;;;;;;;7.82;4.10;;;;;;;1.40;69.68;100238.94;8414343;34;20557;-74
2022/01/07 03:04:27;;;;;;;8.73;4.43;;;;;;;1.45;69.75;100241.34;8413957;34;20467;-74
2022/01/07 03:09:32;;;;;;;6.75;3.88;;;;;;;1.48;69.68;100247.38;8424742;28;20538;-76
2022/01/07 03:14:35;;;;;;;9.63;4.32;;;;;;;1.58;69.52;100221.31;8356372;34;20353;-77
2022/01/07 03:19:38;;;;;;;12.00;4.55;;;;;;;1.50;69.62;100215.53;8358782;34;20158;-76
2022/01/07 03:24:43;;;;;;;6.22;4.03;;;;;;;1.23;70.03;100230.88;8354871;34;20147;-77
2022/01/07 03:29:46;;;;;;;6.57;3.47;;;;;;;1.52;70.40;100218.97;8353645;34;21127;-76
2022/01/07 03:34:49;;;;;;;7.15;3.40;;;;;;;1.42;70.38;100209.72;8355360;34;20691;-76
2022/01/07 03:39:54;;;;;;;7.60;3.95;;;;;;;1.38;71.10;100202.88;8351026;34;20545;-76
2022/01/07 03:44:57;;;;;;;12.88;4.00;;;;;;;1.22;71.41;100184.16;8350874;34;20241;-77
2022/01/07 03:50:00;;;;;;;6.22;2.60;;;;;;;1.06;72.47;100181.34;8351064;34;20272;-76
2022/01/07 03:55:10;;;;;;;10.65;3.92;;;;;;;0.96;73.95;100178.28;8356051;34;20155;-77
2022/01/07 04:00:18;;;;;;;8.13;4.03;;;;;;;0.58;76.42;100178.16;8358382;34;20143;-77
2022/01/07 04:05:22;;;;;;;8.65;4.60;;;;;;;0.59;77.90;100165.78;8358415;34;21182;-75
2022/01/07 04:10:27;;;;;;;7.85;4.07;;;;;;;0.52;79.12;100164.31;8358588;34;21000;-76
2022/01/07 04:15:31;;;;;;;9.02;4.22;;;;;;;0.16;80.31;100155.28;8360549;34;20453;-75
2022/01/07 04:20:36;;;;;;;8.18;4.30;;;;;;;0.41;80.81;100151.56;8361382;34;20287;-75
2022/01/07 04:25:41;;;;;;;10.98;4.60;;;;;;;0.20;81.62;100152.50;8360768;34;20433;-75
2022/01/07 04:30:45;;;;;;;10.82;4.90;;;;;;;0.32;81.66;100136.13;8359333;34;20594;-75
2022/01/07 04:35:49;;;;;;;12.50;5.10;;;;;;;0.34;81.19;100137.78;8360242;34;21033;-75
2022/01/07 04:40:54;;;;;;;14.48;5.15;;;;;;;0.36;81.38;100135.94;8361326;34;20535;-75
2022/01/07 04:45:57;;;;;;;8.57;5.25;;;;;;;0.53;80.93;100127.28;8356341;34;20419;-75
2022/01/07 04:51:01;;;;;;;9.07;5.70;;;;;;;0.44;81.65;100119.75;8354633;34;20195;-76
2022/01/07 04:56:05;;;;;;;12.68;6.03;;;;;;;0.53;81.42;100105.28;8350814;34;20167;-77
2022/01/07 05:01:08;;;;;;;10.27;4.72;;;;;;;0.63;81.51;100103.06;8349801;34;20925;-76
2022/01/07 05:06:38;;;;;;;11.75;4.90;;;;;;;0.55;81.41;100101.63;8352046;34;20407;-76
2022/01/07 05:11:36;;;;;;;12.57;5.43;;;;;;;0.56;80.93;100078.69;8356001;34;20313;-77
2022/01/07 05:16:40;;;;;;;9.90;4.80;;;;;;;0.39;81.68;100085.59;8353032;34;20506;-77
2022/01/07 05:21:43;;;;;;;8.73;5.32;;;;;;;0.50;82.07;100095.69;8351403;34;20544;-78
2022/01/07 05:26:47;;;;;;;8.07;5.60;;;;;;;0.26;82.87;100078.25;8360976;34;20470;-78
2022/01/07 05:31:50;;;;;;;9.43;5.30;;;;;;;0.44;82.96;100079.22;8371288;34;20445;-78
2022/01/07 05:36:54;;;;;;;14.57;5.43;;;;;;;0.52;82.93;100064.78;8358773;34;20460;-78
2022/01/07 05:41:59;;;;;;;7.75;5.15;;;;;;;0.35;83.65;100068.13;8358222;34;20185;-77
2022/01/07 05:47:03;;;;;;;5.93;3.53;;;;;;;0.22;84.08;100068.72;8361783;34;20436;-77
2022/01/07 05:52:07;;;;;;;7.95;4.55;;;;;;;0.15;84.57;100062.88;8354847;34;20592;-78
2022/01/07 05:57:12;;;;;;;7.38;4.28;;;;;;;0.20;83.71;100050.31;8353053;34;20452;-78
2022/01/07 06:02:15;;;;;;;8.60;4.82;;;;;;;0.38;84.07;100052.16;8350164;34;20306;-77
2022/01/07 06:07:22;;;;;;;10.27;5.32;;;;;;;0.27;84.59;100040.34;8355851;34;20466;-77
2022/01/07 06:12:27;;;;;;;10.80;5.80;;;;;;;0.26;84.37;100026.28;8360186;34;21006;-77
2022/01/07 06:17:31;;;;;;;9.45;5.43;;;;;;;0.32;84.64;100046.28;8356498;34;20519;-76
2022/01/07 06:22:34;;;;;;;11.82;5.22;;;;;;;0.25;85.13;100031.63;8350849;34;20140;-76
2022/01/07 06:27:38;;;;;;;11.40;5.33;;;;;;;0.06;85.14;100026.31;8349984;34;20245;-76
2022/01/07 06:32:42;;;;;;;11.35;5.15;;;;;;;0.24;84.83;100029.91;8356153;34;20552;-77
2022/01/07 06:37:48;;;;;;;5.75;3.38;;;;;;;0.12;85.02;100026.88;8365278;34;20511;-78
2022/01/07 06:42:52;;;;;;;7.53;4.43;;;;;;;-0.20;86.96;100027.41;8373767;34;20592;-77
2022/01/07 06:47:55;;;;;;;6.30;4.40;;;;;;;-0.40;88.67;100022.97;8375749;34;20466;-78
2022/01/07 06:52:59;;;;;;;10.70;4.82;;;;;;;0.02;87.40;100015.00;8372066;34;20426;-77
2022/01/07 06:58:23;;;;;;;12.38;4.78;;;;;;;-0.10;87.67;100008.47;8365186;34;20420;-76
2022/01/07 07:03:26;;;;;;;8.63;5.30;;;;;;;0.21;86.56;100006.28;8361751;34;20947;-77
2022/01/07 07:08:30;;;;;;;14.27;6.68;;;;;;;0.09;87.10;100005.03;8371780;34;20915;-77
2022/01/07 07:13:34;;;;;;;13.50;6.28;;;;;;;0.02;88.00;99999.16;8364682;34;20198;-77
2022/01/07 07:18:38;;;;;;;9.83;5.50;;;;;;;0.32;86.78;99998.72;8368562;34;20426;-78
2022/01/07 07:23:41;;;;;;;8.77;6.37;;;;;;;0.51;85.99;100004.03;8368137;34;20272;-79
2022/01/07 07:28:46;;;;;;;11.98;5.53;;;;;;;0.39;86.01;99997.53;8369750;34;20215;-79
2022/01/07 07:34:18;;;;;;;8.57;4.93;;;;;;;0.36;85.99;99998.53;8388971;34;20489;-78
2022/01/07 07:39:20;;;;;;;8.40;5.40;;;;;;;0.39;85.68;99992.25;8374337;34;20155;-78
2022/01/07 07:44:24;;;;;;;10.80;5.47;;;;;;;0.40;85.98;100001.88;8372579;34;20478;-78
2022/01/07 07:49:28;;;;;;;8.27;4.97;;;;;;;0.33;85.46;100003.94;8365081;34;20426;-78
2022/01/07 07:54:31;;;;;;;5.13;4.15;;;;;;;0.35;85.41;100009.16;8376724;34;20147;-78
2022/01/07 07:59:35;;;;;;;6.75;4.85;;;;;;;0.47;85.48;100003.34;8366929;34;20179;-78
2022/01/07 08:04:39;;;;;;;7.47;4.77;;;;;;;0.49;85.13;100009.38;8363332;34;20434;-77
2022/01/07 08:09:42;;;;;;;9.30;4.80;;;;;;;0.38;85.50;100001.97;8364628;34;20202;-77
2022/01/07 08:20:08;;;;;;;8.15;4.43;;;;;;;0.47;86.12;99998.03;8361012;34;20999;-77
2022/01/07 08:25:12;;;;;;;8.35;4.70;;;;;;;0.43;86.46;99996.44;8362385;34;20523;-78
2022/01/07 08:30:23;;;;;;;5.68;3.95;;;;;;;0.34;87.09;100005.66;8358927;34;20254;-78
2022/01/07 08:35:28;;;;;;;9.77;4.75;;;;;;;0.52;86.70;99982.84;8359013;34;20437;-77
2022/01/07 08:40:32;;;;;;;7.47;5.88;;;;;;;0.58;86.29;99995.78;8363385;34;20868;-78
2022/01/07 08:45:36;;;;;;;7.93;5.05;;;;;;;0.82;85.36;99984.97;8359654;34;20222;-78
2022/01/07 08:50:39;;;;;;;6.20;4.70;;;;;;;0.49;86.54;99987.38;8357406;34;20473;-78
2022/01/07 08:55:42;;;;;;;4.18;2.90;;;;;;;0.47;85.92;100005.13;8361568;34;20432;-78
2022/01/07 09:00:47;;;;;;;9.80;5.45;;;;;;;0.51;87.38;99991.69;8359202;34;21163;-77
2022/01/07 09:05:50;;;;;;;9.10;4.80;;;;;;;0.50;87.78;99987.34;8354527;34;20598;-77
2022/01/07 09:10:53;;;;;;;7.38;4.82;;;;;;;0.86;86.78;99983.91;8384563;28;20251;-75
2022/01/07 09:15:58;;;;;;;8.88;4.50;;;;;;;0.67;88.04;99977.78;8404427;34;20950;-75
2022/01/07 09:21:01;;;;;;;6.40;4.13;;;;;;;0.44;88.49;99992.03;8406824;34;20198;-73
2022/01/07 09:26:06;;;;;;;9.88;4.88;;;;;;;0.68;88.31;99992.69;8405722;34;20650;-75
2022/01/07 09:31:11;;;;;;;9.82;5.40;;;;;;;0.80;87.56;99997.41;8403856;34;20265;-76
2022/01/07 09:36:14;;;;;;;7.93;4.47;;;;;;;0.71;87.46;99992.53;8402223;34;20660;-75
2022/01/07 09:41:17;;;;;;;10.88;5.43;;;;;;;1.01;86.72;99992.88;8402376;34;20560;-76
2022/01/07 09:46:22;;;;;;;10.30;5.78;;;;;;;1.01;86.53;99988.44;8400385;34;20471;-76
2022/01/07 09:51:26;;;;;;;7.95;5.43;;;;;;;1.22;85.99;99980.44;8400184;34;20204;-76
2022/01/07 09:56:29;;;;;;;6.97;4.38;;;;;;;1.02;85.97;99995.47;8402814;34;21060;-76
2022/01/07 10:01:54;;;;;;;10.73;5.40;;;;;;;1.28;85.00;99988.91;8410842;34;20245;-76
2022/01/07 10:07:16;;;;;;;7.68;5.30;;;;;;;1.21;84.27;99992.81;8410903;34;20992;-76
2022/01/07 10:12:19;;;;;;;7.32;5.05;;;;;;;1.28;84.58;99980.97;8410262;34;20470;-76
2022/01/07 10:17:23;;;;;;;6.88;4.90;;;;;;;1.25;84.29;99990.84;8415485;34;20430;-76
2022/01/07 10:22:27;;;;;;;6.05;4.05;;;;;;;1.32;83.87;99987.00;8423693;34;20428;-76
2022/01/07 10:27:36;;;;;;;5.30;3.78;;;;;;;1.36;83.56;99970.00;8415279;34;20162;-76
2022/01/07 10:32:41;;;;;;;9.18;5.43;;;;;;;1.59;83.09;99970.66;8412770;34;20215;-76
2022/01/07 10:37:57;;;;;;;10.45;6.25;;;;;;;1.66;82.85;99958.81;8411758;34;20638;-76
2022/01/07 10:43:14;;;;;;;13.52;6.20;;;;;;;1.77;82.54;99947.69;8406587;34;20542;-76
2022/01/07 10:48:25;;;;;;;11.75;6.50;;;;;;;1.70;82.60;99944.47;8404624;34;20461;-75
2022/01/07 10:53:29;;;;;;;12.77;7.32;;;;;;;1.71;82.55;99957.66;8410049;34;20297;-75
2022/01/07 10:59:01;;;;;;;10.98;6.32;;;;;;;1.85;81.55;99945.50;8410105;34;20587;-76
2022/01/07 11:04:08;;;;;;;12.60;7.05;;;;;;;1.86;82.03;99953.34;8408180;34;20410;-76
2022/01/07 11:09:14;;;;;;;11.02;6.55;;;;;;;2.09;80.91;99952.16;8407251;34;20474;-76
2022/01/07 11:14:21;;;;;;;9.50;5.82;;;;;;;1.90;81.47;99954.91;8407053;34;21115;-76
2022/01/07 11:19:31;;;;;;;6.78;5.05;;;;;;;2.01;81.23;99942.91;8407911;34;20420;-76
2022/01/07 11:24:41;;;;;;;10.27;6.07;;;;;;;2.13;81.09;99937.81;8408388;34;20228;-76
2022/01/07 11:30:11;;;;;;;12.50;6.72;;;;;;;1.93;82.20;99936.22;8406556;34;20245;-76
2022/01/07 11:35:47;;;;;;;10.65;6.75;;;;;;;1.73;83.76;99929.31;8402984;34;20439;-76
2022/01/07 11:40:51;;;;;;;14.15;7.90;;;;;;;1.85;83.73;99926.97;8402383;34;20145;-76
2022/01/07 11:45:55;;;;;;;9.90;5.70;;;;;;;1.95;83.42;99925.56;8429291;34;20651;-74
2022/01/07 11:51:18;;;;;;;15.23;8.70;;;;;;;1.94;83.55;99922.03;8436089;34;20229;-76
2022/01/07 11:56:25;;;;;;;17.17;7.93;;;;;;;1.92;83.73;99915.97;8452125;34;20534;-76
2022/01/07 12:01:30;;;;;;;13.15;7.88;;;;;;;1.91;83.36;99922.19;8425109;33;20154;-76
2022/01/07 12:06:50;;;;;;;16.25;9.90;;;;;;;2.06;83.25;99912.59;8419150;34;20436;-76
2022/01/07 12:11:58;;;;;;;15.75;9.60;;;;;;;1.94;83.24;99908.78;8419950;34;20146;-76
2022/01/07 12:17:03;;;;;;;15.45;8.38;;;;;;;2.05;82.96;99900.25;8408318;34;20297;-76
2022/01/07 12:22:11;;;;;;;13.07;7.05;;;;;;;2.17;82.63;99896.97;8406508;34;20429;-75
2022/01/07 12:27:19;;;;;;;13.25;7.97;;;;;;;2.23;82.34;99895.78;8422663;34;20157;-77
2022/01/07 12:32:31;;;;;;;15.23;9.27;;;;;;;2.50;81.78;99892.56;8432290;34;21130;-76
2022/01/07 12:37:37;;;;;;;12.68;8.38;;;;;;;2.52;81.78;99891.50;8430609;34;20460;-75
2022/01/07 12:42:44;;;;;;;12.70;7.72;;;;;;;2.35;82.12;99887.16;8420102;34;20147;-76
2022/01/07 12:47:47;;;;;;;16.20;8.13;;;;;;;2.46;81.52;99894.50;8407357;34;20188;-76
2022/01/07 12:52:52;;;;;;;13.32;7.28;;;;;;;2.29;81.56;99899.91;8407805;34;20147;-75
2022/01/07 12:58:00;;;;;;;13.15;9.00;;;;;;;2.47;81.34;99896.25;8411623;34;20479;-76
2022/01/07 13:03:06;;;;;;;12.10;6.93;;;;;;;2.18;81.13;99906.63;8412664;34;20213;-76
2022/01/07 13:08:13;;;;;;;8.55;5.30;;;;;;;2.38;81.26;99900.22;8408775;34;20456;-76
2022/01/07 13:13:24;;;;;;;13.68;7.70;;;;;;;2.64;80.27;99895.34;8454944;33;20153;-77
2022/01/07 13:18:30;;;;;;;10.38;7.43;;;;;;;2.67;79.64;99884.56;8467031;34;20860;-75
2022/01/07 13:23:37;;;;;;;11.25;6.97;;;;;;;2.76;79.67;99891.13;8466921;34;20138;-75
2022/01/07 13:28:43;;;;;;;15.50;7.82;;;;;;;3.05;79.04;99894.78;8465711;34;20941;-76
2022/01/07 13:33:47;;;;;;;15.27;7.83;;;;;;;3.00;78.69;99888.88;8457351;33;20451;-76
2022/01/07 13:39:08;;;;;;;11.50;7.75;;;;;;;2.90;78.33;99885.03;8456251;33;20142;-76
2022/01/07 13:44:11;;;;;;;15.00;7.85;;;;;;;3.08;78.40;99883.13;8456084;34;20141;-74
2022/01/07 13:49:14;;;;;;;10.50;7.00;;;;;;;3.04;78.60;99887.75;8453611;34;20240;-73
2022/01/07 13:54:20;;;;;;;9.05;6.82;;;;;;;2.66;78.22;99880.19;8458812;33;20711;-74
2022/01/07 13:59:24;;;;;;;10.93;6.95;;;;;;;2.82;78.35;99881.00;8458667;33;20411;-74
2022/01/07 14:04:48;;;;;;;8.63;6.50;;;;;;;2.96;77.23;99884.69;8457165;34;20236;-74
2022/01/07 14:10:08;;;;;;;11.30;6.35;;;;;;;2.86;77.41;99873.75;8455087;33;20534;-74
2022/01/07 14:15:14;;;;;;;11.00;6.72;;;;;;;3.09;77.21;99871.56;8458554;34;20549;-75
2022/01/07 14:20:17;;;;;;;11.25;6.63;;;;;;;3.01;77.41;99877.31;8458834;33;20240;-75
2022/01/07 14:25:22;;;;;;;12.35;7.78;;;;;;;3.05;77.33;99860.28;8462844;34;20969;-75
2022/01/07 14:30:25;;;;;;;7.65;6.10;;;;;;;2.85;77.24;99866.72;8465769;34;20133;-74
2022/01/07 14:35:28;;;;;;;12.32;6.28;;;;;;;3.09;77.19;99872.41;8469293;34;20192;-74
2022/01/07 14:40:33;;;;;;;9.43;6.47;;;;;;;3.05;77.09;99857.63;8468179;34;20310;-74
2022/01/07 14:45:36;;;;;;;8.85;5.53;;;;;;;2.99;77.28;99868.59;8481969;34;20197;-73
2022/01/07 14:50:39;;;;;;;7.72;4.55;;;;;;;3.00;76.83;99863.19;8474041;33;20411;-76
2022/01/07 14:55:44;;;;;;;10.82;6.25;;;;;;;3.00;76.89;99865.84;8470882;33;20458;-74
2022/01/07 15:00:48;;;;;;;8.43;5.93;;;;;;;3.18;76.66;99865.72;8468065;34;20721;-74
2022/01/07 15:05:52;;;;;;;7.18;4.53;;;;;;;3.03;76.32;99862.16;8468104;33;20165;-74
2022/01/07 15:10:56;;;;;;;10.60;6.35;;;;;;;3.05;77.07;99847.03;8442234;28;20198;-76
2022/01/07 15:21:23;;;;;;;9.10;5.68;;;;;;;3.09;77.08;99847.69;8397069;34;20159;-77
2022/01/07 15:26:28;;;;;;;8.63;5.82;;;;;;;3.00;77.29;99859.69;8365733;34;20536;-76
2022/01/07 15:31:32;;;;;;;6.10;4.38;;;;;;;3.02;77.20;99863.13;8361482;34;20241;-76
2022/01/07 15:36:36;;;;;;;8.05;5.93;;;;;;;2.94;77.25;99860.91;8358647;34;20150;-76
2022/01/07 15:41:42;;;;;;;9.43;5.90;;;;;;;2.95;77.19;99867.91;8360860;34;20577;-76
2022/01/07 15:46:45;;;;;;;6.85;5.78;;;;;;;2.82;77.55;99867.75;8362370;34;20206;-76
2022/01/07 15:51:48;;;;;;;11.43;6.07;;;;;;;2.89;78.06;99870.06;8364879;34;20443;-76
2022/01/07 15:56:53;;;;;;;9.60;6.13;;;;;;;2.90;78.44;99853.19;8376783;34;20530;-75
2022/01/07 16:01:56;;;;;;;8.75;5.25;;;;;;;2.48;79.55;99868.78;8376123;34;20150;-76
2022/01/07 16:06:59;;;;;;;9.07;6.53;;;;;;;2.66;79.42;99852.78;8376303;34;20280;-76
2022/01/07 16:12:04;;;;;;;9.35;6.38;;;;;;;2.61;79.92;99856.59;8376237;34;20226;-76
2022/01/07 16:17:07;;;;;;;6.72;4.43;;;;;;;2.33;81.20;99854.59;8376623;34;20542;-77
2022/01/07 16:22:10;;;;;;;8.30;5.82;;;;;;;2.27;81.56;99859.34;8375005;34;20408;-76
2022/01/07 16:27:16;;;;;;;7.40;4.63;;;;;;;2.23;81.44;99853.38;8375587;34;20493;-77
2022/01/07 16:32:19;;;;;;;8.43;5.93;;;;;;;2.44;80.92;99854.00;8378503;34;20188;-76
2022/01/07 16:37:22;;;;;;;7.85;5.18;;;;;;;2.32;80.63;99850.22;8379661;34;20252;-76
2022/01/07 16:42:26;;;;;;;7.40;4.47;;;;;;;2.43;80.30;99854.06;8379698;34;20128;-76
2022/01/07 16:47:32;;;;;;;12.77;5.22;;;;;;;2.39;79.96;99856.91;8378300;34;20494;-76
2022/01/07 16:52:35;;;;;;;5.60;3.95;;;;;;;2.46;79.07;99846.78;8378698;34;20290;-77
2022/01/07 16:57:39;;;;;;;5.22;3.90;;;;;;;2.38;79.16;99856.97;8375174;34;20669;-77
2022/01/07 17:02:43;;;;;;;5.13;3.78;;;;;;;2.33;79.03;99846.63;8373879;34;20526;-77
2022/01/07 17:07:46;;;;;;;4.43;3.17;;;;;;;2.13;79.14;99834.47;8378218;34;20242;-77
2022/01/07 17:12:51;;;;;;;6.65;4.88;;;;;;;2.19;79.32;99841.22;8372639;34;20513;-77
2022/01/07 17:17:57;;;;;;;15.10;4.63;;;;;;;2.15;78.75;99839.69;8373029;34;20441;-77
2022/01/07 17:23:02;;;;;;;9.00;5.87;;;;;;;2.24;79.40;99841.81;8372703;34;20952;-77
2022/01/07 17:28:06;;;;;;;5.43;4.72;;;;;;;2.22;79.56;99842.84;8366235;34;20261;-77
2022/01/07 17:33:09;;;;;;;6.80;4.70;;;;;;;2.10;80.23;99839.09;8369741;34;20454;-77
2022/01/07 17:38:13;;;;;;;6.85;4.72;;;;;;;2.21;79.83;99835.84;8359671;34;20430;-77
2022/01/07 17:43:17;;;;;;;11.18;5.00;;;;;;;2.19;79.86;99833.28;8357769;34;20142;-77
2022/01/07 17:48:20;;;;;;;6.15;4.47;;;;;;;2.12;80.07;99830.13;8359536;34;21049;-77
2022/01/07 17:53:24;;;;;;;6.05;4.35;;;;;;;2.14;79.88;99827.41;8357064;34;20434;-77
2022/01/07 17:58:28;;;;;;;5.07;3.47;;;;;;;2.07;79.86;99829.50;8357429;34;20151;-77
2022/01/07 18:03:31;;;;;;;5.93;4.40;;;;;;;1.94;80.70;99831.09;8359840;34;20435;-76
2022/01/07 18:08:34;;;;;;;6.60;4.30;;;;;;;2.08;79.95;99839.16;8357946;34;20555;-77
2022/01/07 18:13:38;;;;;;;6.22;4.68;;;;;;;2.24;79.72;99839.19;8359660;34;20569;-77
2022/01/07 18:18:42;;;;;;;10.50;5.78;;;;;;;1.99;79.63;99831.72;8367017;34;20495;-77
2022/01/07 18:23:45;;;;;;;8.25;5.13;;;;;;;1.73;81.22;99841.06;8369188;34;21231;-77
2022/01/07 18:28:50;;;;;;;10.35;5.47;;;;;;;2.14;80.47;99838.84;8358029;34;20621;-77
2022/01/07 18:33:58;;;;;;;8.77;6.25;;;;;;;2.08;80.54;99846.25;8357018;34;20882;-77
2022/01/07 18:39:01;;;;;;;10.63;7.22;;;;;;;1.89;80.92;99846.38;8355174;34;20600;-77
2022/01/07 18:44:07;;;;;;;12.68;7.80;;;;;;;1.64;82.84;99852.97;8349475;34;20359;-78
2022/01/07 18:49:13;;;;;;;8.57;4.85;;;;;;;1.53;82.25;99851.84;8351900;34;20571;-77
2022/01/07 18:54:16;;;;;;;2.75;2.53;;;;;;;1.38;82.60;99857.00;8353142;34;20178;-78
2022/01/07 18:59:20;;;;;;;3.38;1.80;;;;;;;1.29;82.44;99852.19;8351700;34;20187;-78
2022/01/07 19:04:23;;;;;;;2.28;2.00;;;;;;;1.21;82.76;99854.38;8354578;34;21030;-78
2022/01/07 19:09:26;;;;;;;2.00;1.70;;;;;;;1.12;83.14;99854.81;8392542;34;20482;-78
2022/01/07 19:14:31;;;;;;;2.33;1.60;;;;;;;0.96;83.72;99849.41;8421070;34;20583;-78
2022/01/07 19:19:34;;;;;;;4.25;1.90;;;;;;;1.27;82.56;99840.81;8410392;34;20127;-78
2022/01/07 19:24:38;;;;;;;2.10;1.90;;;;;;;1.16;82.88;99848.44;8425465;34;20552;-78
2022/01/07 19:29:43;;;;;;;2.15;1.95;;;;;;;1.12;83.54;99863.59;8419033;34;20443;-79
2022/01/07 19:34:46;;;;;;;2.30;1.85;;;;;;;0.69;84.08;99864.88;8421357;33;20539;-78
2022/01/07 19:39:49;;;;;;;2.55;1.80;;;;;;;0.28;85.83;99867.72;8418793;34;20178;-80
2022/01/07 19:44:53;;;;;;;1.73;1.48;;;;;;;-0.06;86.01;99871.88;8422817;34;20146;-80
2022/01/07 19:49:57;;;;;;;2.20;2.00;;;;;;;-0.09;87.45;99874.66;8423918;34;20170;-78
2022/01/07 19:55:00;;;;;;;4.15;2.15;;;;;;;-0.08;86.02;99868.47;8425664;34;20157;-79
2022/01/07 20:00:06;;;;;;;2.63;2.20;;;;;;;-0.15;86.28;99872.28;8427910;34;20146;-79
2022/01/07 20:05:11;;;;;;;1.13;1.02;;;;;;;-0.50;87.19;99879.97;8424304;34;20453;-78
2022/01/07 20:10:17;;;;;;;2.72;2.20;;;;;;;-0.37;87.32;99885.59;8425412;34;20281;-77
2022/01/07 20:15:22;;;;;;;3.78;2.50;;;;;;;-0.20;86.98;99869.00;8422309;34;20161;-77
2022/01/07 20:20:26;;;;;;;3.50;2.53;;;;;;;-0.11;86.44;99847.47;8392121;34;20231;-78
2022/01/07 20:25:29;;;;;;;2.20;2.00;;;;;;;-0.24;86.46;99848.97;8389694;34;20441;-79
2022/01/07 20:30:34;;;;;;;3.30;2.67;;;;;;;-0.17;86.93;99859.16;8391476;34;20501;-79
2022/01/07 20:35:39;;;;;;;2.22;2.03;;;;;;;-0.11;86.61;99853.63;8396658;34;20151;-80
2022/01/07 20:40:43;;;;;;;4.23;2.60;;;;;;;0.03;86.01;99858.28;8444756;34;20475;-80
2022/01/07 20:45:47;;;;;;;3.22;2.92;;;;;;;0.06;86.31;99858.13;8438113;34;20130;-81
2022/01/07 20:50:51;;;;;;;4.30;2.92;;;;;;;0.01;86.39;99854.00;8416832;34;20680;-81
2022/01/07 20:55:54;;;;;;;3.92;3.10;;;;;;;0.03;86.11;99853.00;8396469;34;20151;-79
2022/01/07 21:00:58;;;;;;;5.07;3.35;;;;;;;0.08;85.93;99836.91;8424741;34;20158;-79
2022/01/07 21:06:01;;;;;;;6.18;3.72;;;;;;;0.12;85.93;99852.56;8424317;34;20529;-81
2022/01/07 21:11:05;;;;;;;6.22;3.55;;;;;;;-0.05;86.50;99860.41;8441806;28;20921;-75
2022/01/07 21:16:10;;;;;;;4.90;3.47;;;;;;;-0.03;86.47;99853.25;8414336;34;20200;-76
2022/01/07 21:21:13;;;;;;;5.22;3.05;;;;;;;-0.02;86.75;99848.84;8414698;34;20242;-73
2022/01/07 21:26:16;;;;;;;4.47;3.30;;;;;;;0.12;86.10;99854.34;8437741;34;20553;-74
2022/01/07 21:31:20;;;;;;;6.67;4.60;;;;;;;0.16;86.14;99837.41;8438073;34;20493;-73
2022/01/07 21:36:24;;;;;;;5.85;3.92;;;;;;;0.33;86.14;99841.91;8434186;34;21017;-73
2022/01/07 21:41:27;;;;;;;5.85;3.63;;;;;;;0.37;86.15;99838.19;8446660;34;20199;-73
2022/01/07 21:46:31;;;;;;;6.57;4.20;;;;;;;0.40;86.06;99840.69;8446947;34;20689;-73
2022/01/07 21:51:34;;;;;;;8.80;5.28;;;;;;;0.48;86.34;99842.97;8462948;34;20516;-72
2022/01/07 21:56:38;;;;;;;5.45;4.32;;;;;;;0.50;86.55;99846.41;8468325;34;20540;-73
2022/01/07 22:01:43;;;;;;;5.43;3.60;;;;;;;0.54;86.04;99851.44;8467890;33;20423;-73
2022/01/07 22:06:46;;;;;;;5.63;4.18;;;;;;;0.48;85.82;99845.63;8466865;33;20605;-73
2022/01/07 22:11:49;;;;;;;4.82;4.13;;;;;;;0.45;86.07;99857.19;8465994;34;21201;-73
2022/01/07 22:16:54;;;;;;;8.70;5.45;;;;;;;0.51;85.97;99856.03;8465868;33;21116;-73
2022/01/07 22:21:58;;;;;;;9.75;5.97;;;;;;;0.47;85.65;99843.91;8466563;34;20588;-74
2022/01/07 22:27:01;;;;;;;9.73;5.65;;;;;;;0.47;85.67;99846.56;8467524;34;20431;-73
2022/01/07 22:32:07;;;;;;;11.30;6.22;;;;;;;0.50;85.85;99851.69;8461587;34;20995;-73
2022/01/07 22:37:10;;;;;;;13.75;8.10;;;;;;;0.49;85.79;99849.97;8465617;34;20233;-73
2022/01/07 22:42:13;;;;;;;13.23;7.57;;;;;;;0.57;85.84;99845.16;8454328;33;20280;-73
2022/01/07 22:47:17;;;;;;;14.20;7.93;;;;;;;0.54;85.69;99842.66;8412513;34;20154;-74
2022/01/07 22:52:20;;;;;;;18.05;9.60;;;;;;;0.60;85.43;99837.09;8415579;34;20965;-73
2022/01/07 22:57:23;;;;;;;17.10;8.82;;;;;;;0.56;85.41;99840.81;8414895;34;20525;-74
2022/01/07 23:02:28;;;;;;;17.87;10.00;;;;;;;0.48;85.56;99843.81;8414696;34;20577;-73
2022/01/07 23:07:31;;;;;;;17.07;9.53;;;;;;;0.55;85.58;99836.44;8404401;34;20460;-75
2022/01/07 23:12:36;;;;;;;20.20;10.38;;;;;;;0.57;85.10;99839.88;8405239;34;20475;-75
2022/01/07 23:17:42;;;;;;;21.33;11.40;;;;;;;0.60;85.41;99834.44;8405279;34;20519;-73
2022/01/07 23:22:45;;;;;;;19.20;10.48;;;;;;;0.59;85.40;99830.09;8410145;34;20467;-72
2022/01/07 23:27:48;;;;;;;19.83;11.30;;;;;;;0.68;85.15;99834.06;8413003;34;20448;-72
2022/01/07 23:32:53;;;;;;;28.48;11.77;;;;;;;0.52;85.23;99826.91;8406100;34;20595;-73
2022/01/07 23:37:56;;;;;;;24.45;12.20;;;;;;;0.58;85.29;99833.69;8406506;34;20418;-74
2022/01/07 23:43:01;;;;;;;20.27;11.02;;;;;;;0.55;85.35;99829.41;8408051;34;21009;-75
2022/01/07 23:48:06;;;;;;;22.25;11.57;;;;;;;0.43;85.61;99834.41;8416078;34;20182;-75
2022/01/07 23:53:11;;;;;;;20.60;10.95;;;;;;;0.56;85.34;99827.59;8425905;34;20186;-75
2022/01/07 23:58:14;;;;;;;22.70;11.52;;;;;;;0.56;85.68;99825.81;8430422;34;20237;-76
